Terminal Aerodrome Forecast
Issued by NWS Louisville, KY

Home | Current Version | Previous Version | Text Only | Print | Product List | Glossary On
Versions: 1 2 3 4 5 6 7 8 9 10 11 12 13 14
397
FTUS43 KLMK 281126
TAFSDF
TAF
KSDF 281126Z 2812/2918 VRB03KT P6SM FEW250
     FM281800 18004KT P6SM FEW040 SCT250
      TEMPO 2821/2901 VRB15G25KT 3SM TSRA BKN040CB
     FM290200 08004KT P6SM SCT040 BKN250
     FM290600 05005KT P6SM SCT080 BKN250
      TEMPO 2909/2913 6SM BR=

USA.gov is the U.S. government's official web portal to all federal, state and local government web resources and services.